KWL weather

Guilin Liangjiang International Airport
Guilin City, Guangxi Autonomous Region, China

Public forecast

Using degrees Celsius for public forecast. Weather courtesy of forecast.io.

METAR (pilot weather report)

Retrieved 2019/04/18 22:00 UTC (26 minutes ago):

ZGKL 182200Z 31001MPS 0500 R19/1200 FG FEW006 SCT026 OVC040 21/21 Q1004 BECMG FM0000 0700

TAF (pilot weather forecast)

Retrieved 2019/04/18 18:03 UTC (4 hours ago):

TAF ZGKL 181513Z 1818/1918 VRB01MPS 2000 BR FEW013 SCT026 OVC040 TX24/1907Z TN20/1822Z TEMPO 1821/1901 1300 TSRA BR FEW005 SCT023 FEW033CB OVC040